Time;durP1;ratioP1;P1;durP2;ratioP2;P2;SDS_P1;SDS_P2;PMS_P1;PMS_P2;Temp;Humidity;BMP_temperature;BMP_pressure;BME280_temperature;BME280_humidity;BME280_pressure;Samples;Min_cycle;Max_cycle;Signal;HPM_P1;HPM_P2
2022/06/03 00:01:20;;;;;;;8.85;3.20;;;11.20;96.90;;;;;;4230941;28;20051;-84
2022/06/03 00:03:43;;;;;;;4.00;2.47;;;11.20;97.60;;;;;;4249054;27;20047;-84
2022/06/03 00:06:02;;;;;;;4.20;2.83;;;11.20;97.00;;;;;;4248827;27;20055;-84
2022/06/03 00:08:16;;;;;;;5.30;2.47;;;11.10;97.40;;;;;;4248606;27;20039;-84
2022/06/03 00:10:41;;;;;;;5.65;3.30;;;11.10;97.30;;;;;;4230340;28;20044;-84
2022/06/03 00:12:47;;;;;;;7.45;2.88;;;11.10;97.50;;;;;;4248244;27;20511;-84
2022/06/03 00:15:20;;;;;;;6.93;3.20;;;11.20;97.60;;;;;;4230361;28;20048;-84
2022/06/03 00:17:57;;;;;;;5.30;2.88;;;11.20;97.90;;;;;;4213265;28;20123;-84
2022/06/03 00:20:28;;;;;;;3.92;2.63;;;11.10;98.20;;;;;;4230276;28;20056;-84
2022/06/03 00:22:45;;;;;;;9.35;3.80;;;11.10;98.10;;;;;;4247958;27;20086;-84
2022/06/03 00:25:20;;;;;;;8.13;3.50;;;11.10;98.00;;;;;;4230320;28;20039;-84
2022/06/03 00:27:27;;;;;;;4.72;2.58;;;11.10;98.10;;;;;;4232932;27;20172;-84
2022/06/03 00:30:04;;;;;;;5.25;2.88;;;11.00;97.90;;;;;;4248377;27;20402;-84
2022/06/03 00:32:34;;;;;;;4.88;2.88;;;11.00;98.20;;;;;;4229898;28;20051;-84
2022/06/03 00:34:56;;;;;;;4.47;2.33;;;10.90;98.20;;;;;;4247538;27;20054;-84
2022/06/03 00:37:55;;;;;;;5.03;2.72;;;10.90;98.20;;;;;;4248138;27;20039;-84
2022/06/03 00:40:13;;;;;;;;;;;10.90;98.60;;;;;;4207602;28;20114;-84
2022/06/03 00:42:32;;;;;;;4.35;2.72;;;10.80;99.20;;;;;;4229267;28;20821;-85
2022/06/03 00:45:17;;;;;;;5.18;2.95;;;10.80;98.30;;;;;;4230064;28;20130;-84
2022/06/03 00:47:37;;;;;;;3.95;2.67;;;10.80;98.30;;;;;;4248030;27;20096;-84
2022/06/03 00:49:55;;;;;;;5.22;2.20;;;10.70;98.20;;;;;;4229581;28;20047;-84
2022/06/03 00:52:09;;;;;;;6.47;2.40;;;10.70;98.30;;;;;;4248032;27;20118;-84
2022/06/03 00:54:30;;;;;;;4.68;2.22;;;10.70;98.20;;;;;;4247020;27;20075;-84
2022/06/03 00:56:47;;;;;;;2.78;1.80;;;10.60;98.40;;;;;;4162561;28;20060;-84
2022/06/03 00:59:03;;;;;;;3.63;1.85;;;10.50;98.30;;;;;;4231026;28;20078;-84
2022/06/03 01:01:23;;;;;;;4.40;1.60;;;10.50;98.40;;;;;;4230593;28;20047;-84
2022/06/03 01:03:31;;;;;;;1.90;1.33;;;10.40;98.30;;;;;;4212561;28;20040;-84
2022/06/03 01:05:54;;;;;;;5.03;2.25;;;10.40;98.50;;;;;;4212259;28;20131;-84
2022/06/03 01:08:02;;;;;;;3.65;2.60;;;10.30;98.80;;;;;;4230773;28;20123;-84
2022/06/03 01:10:03;;;;;;;3.72;2.35;;;10.30;98.90;;;;;;4230796;28;20078;-84
2022/06/03 01:12:15;;;;;;;3.80;2.40;;;10.10;98.80;;;;;;4212610;28;20051;-84
2022/06/03 01:14:21;;;;;;;4.20;2.90;;;10.20;99.00;;;;;;4212807;28;20547;-84
2022/06/03 01:17:06;;;;;;;6.10;2.83;;;10.10;99.00;;;;;;4230197;28;20047;-84
2022/06/03 01:19:35;;;;;;;6.53;2.80;;;10.10;99.60;;;;;;4218859;28;20051;-84
2022/06/03 01:22:01;;;;;;;3.90;2.65;;;10.00;99.60;;;;;;4230560;28;20087;-84
2022/06/03 01:24:23;;;;;;;3.60;2.28;;;10.10;99.50;;;;;;4230689;28;20536;-84
2022/06/03 01:26:54;;;;;;;3.53;2.35;;;10.00;99.50;;;;;;4230359;28;20051;-84
2022/06/03 01:29:32;;;;;;;3.10;2.30;;;10.00;99.30;;;;;;4230003;28;20028;-84
2022/06/03 01:31:57;;;;;;;3.75;2.08;;;9.90;99.50;;;;;;4212592;28;20063;-84
2022/06/03 01:33:57;;;;;;;4.00;2.58;;;9.90;99.60;;;;;;4230652;28;20103;-84
2022/06/03 01:36:24;;;;;;;3.53;2.42;;;9.80;99.30;;;;;;4213400;28;20118;-84
2022/06/03 01:38:38;;;;;;;4.35;2.40;;;9.80;99.60;;;;;;4230493;28;20504;-84
2022/06/03 01:40:55;;;;;;;6.45;2.25;;;9.70;99.50;;;;;;4230584;28;20043;-84
2022/06/03 01:43:25;;;;;;;3.85;2.08;;;9.70;99.80;;;;;;4229964;28;20111;-84
2022/06/03 01:45:56;;;;;;;2.90;2.15;;;9.70;99.90;;;;;;4182737;28;20080;-84
2022/06/03 01:48:30;;;;;;;2.35;2.00;;;9.60;99.90;;;;;;4228137;28;20047;-84
2022/06/03 01:50:52;;;;;;;3.75;2.30;;;9.60;99.90;;;;;;4158626;28;20099;-84
2022/06/03 01:53:29;;;;;;;8.00;3.25;;;9.70;99.90;;;;;;4229817;28;20039;-84
2022/06/03 01:56:05;;;;;;;5.00;2.78;;;9.70;99.90;;;;;;4229989;28;20054;-84
2022/06/03 01:58:19;;;;;;;4.40;2.72;;;9.70;99.90;;;;;;4230461;28;20039;-84
2022/06/03 02:00:39;;;;;;;6.70;3.05;;;9.70;99.90;;;;;;4230442;28;20086;-84
2022/06/03 02:02:53;;;;;;;14.20;4.03;;;9.70;99.90;;;;;;4230248;28;20479;-84
2022/06/03 02:05:15;;;;;;;5.95;4.00;;;9.60;99.90;;;;;;4230637;28;20054;-84
2022/06/03 02:07:30;;;;;;;4.28;3.05;;;9.60;99.90;;;;;;4229141;28;20046;-84
2022/06/03 02:09:31;;;;;;;4.75;2.75;;;9.50;99.90;;;;;;4247499;28;20051;-84
2022/06/03 02:11:53;;;;;;;3.90;2.42;;;9.50;99.90;;;;;;4249273;27;20050;-85
2022/06/03 02:14:16;;;;;;;4.47;2.38;;;9.50;99.90;;;;;;4250629;27;20509;-85
2022/06/03 02:16:32;;;;;;;5.40;2.88;;;9.40;99.90;;;;;;4232076;28;20047;-84
2022/06/03 02:19:09;;;;;;;6.22;2.78;;;9.50;99.90;;;;;;4249912;27;20046;-84
2022/06/03 02:21:36;;;;;;;4.40;2.88;;;9.40;99.90;;;;;;4250284;27;20047;-84
2022/06/03 02:23:42;;;;;;;3.03;2.25;;;9.40;99.90;;;;;;4231997;28;20104;-84
2022/06/03 02:26:26;;;;;;;6.28;3.10;;;9.30;99.90;;;;;;4250594;27;20039;-84
2022/06/03 02:28:48;;;;;;;6.88;2.78;;;9.30;99.90;;;;;;4250466;27;20062;-84
2022/06/03 02:31:05;;;;;;;6.10;2.90;;;9.30;99.90;;;;;;4250050;27;20070;-84
2022/06/03 02:33:18;;;;;;;5.88;2.88;;;9.20;99.90;;;;;;4250403;27;20054;-84
2022/06/03 02:35:52;;;;;;;6.22;3.40;;;9.20;99.90;;;;;;4250622;27;20050;-84
2022/06/03 02:38:08;;;;;;;4.38;2.92;;;9.30;99.90;;;;;;4232115;28;20051;-83
2022/06/03 02:40:39;;;;;;;5.38;3.13;;;9.20;99.90;;;;;;4249799;27;20402;-83
2022/06/03 02:43:10;;;;;;;7.03;3.30;;;9.20;99.90;;;;;;4250197;27;20050;-84
2022/06/03 02:45:19;;;;;;;6.90;3.42;;;9.20;99.90;;;;;;4231604;28;20535;-84
2022/06/03 02:47:53;;;;;;;6.50;3.30;;;9.20;99.90;;;;;;4250141;27;20043;-84
2022/06/03 02:50:06;;;;;;;6.03;3.30;;;9.20;99.90;;;;;;4250106;27;20061;-84
2022/06/03 02:52:32;;;;;;;9.48;3.20;;;9.20;99.90;;;;;;4249989;27;20456;-84
2022/06/03 02:54:48;;;;;;;4.65;3.30;;;9.20;99.90;;;;;;4246126;27;20047;-84
2022/06/03 02:57:23;;;;;;;7.38;3.50;;;9.20;99.90;;;;;;4232886;28;20491;-84
2022/06/03 02:59:38;;;;;;;6.00;3.17;;;9.20;99.90;;;;;;4214118;28;20043;-84
2022/06/03 03:01:54;;;;;;;7.22;3.58;;;9.20;99.90;;;;;;4232286;28;20052;-84
2022/06/03 03:04:16;;;;;;;5.60;3.17;;;9.20;99.90;;;;;;4233014;28;20039;-84
2022/06/03 03:06:28;;;;;;;5.00;3.42;;;9.20;99.90;;;;;;4214631;28;20036;-84
2022/06/03 03:09:06;;;;;;;5.43;3.35;;;9.20;99.90;;;;;;4232741;28;20062;-84
2022/06/03 03:11:15;;;;;;;5.88;3.67;;;9.20;99.90;;;;;;4213801;28;20047;-84
2022/06/03 03:13:32;;;;;;;8.98;3.78;;;9.20;99.90;;;;;;4232578;28;20055;-84
2022/06/03 03:15:51;;;;;;;7.72;3.65;;;9.20;99.90;;;;;;4232156;28;20088;-84
2022/06/03 03:18:30;;;;;;;5.78;3.22;;;9.20;99.90;;;;;;4232435;28;20048;-84
2022/06/03 03:20:40;;;;;;;3.95;2.80;;;9.10;99.90;;;;;;4231990;28;20043;-84
2022/06/03 03:23:08;;;;;;;3.60;2.47;;;9.10;99.90;;;;;;4231095;28;20158;-84
2022/06/03 03:25:18;;;;;;;3.93;2.70;;;9.10;99.90;;;;;;4231940;28;20058;-84
2022/06/03 03:27:37;;;;;;;3.58;2.55;;;9.10;99.90;;;;;;4231591;28;20051;-84
2022/06/03 03:30:21;;;;;;;2.95;1.98;;;9.00;99.90;;;;;;4231531;28;20097;-84
2022/06/03 03:32:29;;;;;;;3.13;2.55;;;9.00;99.90;;;;;;4146215;28;20082;-84
2022/06/03 03:34:45;;;;;;;2.90;2.30;;;9.00;99.90;;;;;;4208390;28;20568;-84
2022/06/03 03:36:57;;;;;;;5.22;2.90;;;9.00;99.90;;;;;;4231716;28;20484;-84
2022/06/03 03:39:07;;;;;;;6.88;2.83;;;9.00;99.90;;;;;;4231402;28;20075;-84
2022/06/03 03:41:43;;;;;;;3.47;2.47;;;9.00;99.90;;;;;;4231248;28;20063;-84
2022/06/03 03:44:05;;;;;;;3.85;2.45;;;9.10;99.90;;;;;;4200008;28;20063;-84
2022/06/03 03:46:41;;;;;;;3.50;2.63;;;9.10;99.90;;;;;;4230550;28;20407;-85
2022/06/03 03:49:09;;;;;;;6.93;2.85;;;9.10;99.90;;;;;;4188176;28;20052;-84
2022/06/03 03:51:46;;;;;;;3.08;2.22;;;9.10;99.90;;;;;;4213595;28;20044;-84
2022/06/03 03:53:59;;;;;;;4.15;2.65;;;9.10;99.90;;;;;;4231590;28;20147;-84
2022/06/03 03:56:24;;;;;;;6.43;3.17;;;9.10;99.90;;;;;;4195567;28;20447;-84
2022/06/03 03:58:36;;;;;;;7.60;3.58;;;9.20;99.90;;;;;;4231333;28;20043;-84
2022/06/03 04:01:07;;;;;;;5.88;3.25;;;9.20;99.90;;;;;;4231091;28;20051;-83
2022/06/03 04:03:36;;;;;;;8.27;3.72;;;9.30;99.90;;;;;;4231116;28;20122;-83
2022/06/03 04:05:54;;;;;;;9.85;3.40;;;9.30;99.90;;;;;;4213461;28;20036;-83
2022/06/03 04:08:23;;;;;;;4.15;2.90;;;9.40;99.90;;;;;;4231280;28;20069;-83
2022/06/03 04:10:29;;;;;;;7.35;2.25;;;9.50;99.90;;;;;;4231765;28;20047;-84
2022/06/03 04:13:01;;;;;;;3.38;2.03;;;9.50;99.90;;;;;;4231583;28;20051;-83
2022/06/03 04:15:45;;;;;;;5.75;2.92;;;9.50;99.90;;;;;;4231177;28;20050;-84
2022/06/03 04:18:15;;;;;;;5.32;2.95;;;9.60;99.90;;;;;;4231440;28;20082;-84
2022/06/03 04:20:35;;;;;;;4.43;2.60;;;9.60;99.90;;;;;;4231489;28;20514;-84
2022/06/03 04:22:54;;;;;;;4.43;2.72;;;9.60;99.90;;;;;;4213053;28;20067;-84
2022/06/03 04:25:14;;;;;;;5.57;2.90;;;9.60;99.90;;;;;;4231254;28;20082;-84
2022/06/03 04:27:34;;;;;;;5.60;2.97;;;9.70;99.90;;;;;;4230230;28;20149;-84
2022/06/03 04:30:05;;;;;;;8.18;3.85;;;9.70;99.90;;;;;;4230970;28;20070;-84
2022/06/03 04:32:23;;;;;;;7.15;3.65;;;9.70;99.90;;;;;;4231073;28;20044;-84
2022/06/03 04:35:09;;;;;;;6.70;3.63;;;9.70;99.90;;;;;;4230548;28;20056;-84
2022/06/03 04:37:24;;;;;;;7.95;3.88;;;9.80;99.90;;;;;;4230304;28;20104;-84
2022/06/03 04:39:40;;;;;;;5.22;3.40;;;9.80;99.90;;;;;;4216870;28;20052;-83
2022/06/03 04:42:34;;;;;;;5.00;3.25;;;9.80;99.90;;;;;;4218155;28;20086;-84
2022/06/03 04:44:35;;;;;;;6.97;3.70;;;9.90;99.90;;;;;;4231979;27;20039;-84
2022/06/03 04:47:14;;;;;;;7.72;3.70;;;9.90;99.90;;;;;;4229662;28;20388;-84
2022/06/03 04:49:23;;;;;;;10.75;4.53;;;9.90;99.90;;;;;;4247567;27;20410;-84
2022/06/03 04:52:04;;;;;;;8.75;4.22;;;10.00;99.90;;;;;;4229712;28;20043;-83
2022/06/03 04:54:37;;;;;;;6.78;4.07;;;10.10;99.90;;;;;;4247891;27;20468;-84
2022/06/03 04:57:19;;;;;;;8.80;4.20;;;10.10;99.90;;;;;;4215434;27;20448;-83
2022/06/03 04:59:38;;;;;;;5.40;3.75;;;10.10;99.90;;;;;;4213102;27;20044;-83
2022/06/03 05:01:54;;;;;;;;;;;10.20;99.90;;;;;;4249959;27;20050;-83
2022/06/03 05:04:14;;;;;;;19.77;5.32;;;10.30;99.90;;;;;;4247950;27;19927;-85
2022/06/03 05:06:52;;;;;;;7.63;4.20;;;10.30;99.90;;;;;;4229387;28;20118;-84
2022/06/03 05:09:19;;;;;;;7.88;4.53;;;10.40;99.90;;;;;;4248165;27;20075;-84
2022/06/03 05:12:03;;;;;;;10.25;4.10;;;10.40;99.90;;;;;;4247987;27;20078;-83
2022/06/03 05:14:41;;;;;;;8.50;4.45;;;10.50;99.90;;;;;;4249494;27;20084;-83
2022/06/03 05:17:02;;;;;;;8.93;4.85;;;10.60;99.90;;;;;;4248351;27;20114;-83
2022/06/03 05:19:31;;;;;;;6.82;4.20;;;10.70;99.90;;;;;;4248756;27;20380;-84
2022/06/03 05:21:46;;;;;;;7.32;4.45;;;10.80;99.90;;;;;;4246342;27;20051;-84
2022/06/03 05:24:17;;;;;;;7.95;4.80;;;10.90;99.90;;;;;;4226710;28;20433;-83
2022/06/03 05:26:27;;;;;;;8.05;4.65;;;10.90;99.90;;;;;;4212725;28;20050;-82
2022/06/03 05:29:25;;;;;;;8.40;4.47;;;11.00;99.90;;;;;;4220524;28;20039;-82
2022/06/03 05:31:46;;;;;;;11.02;4.35;;;11.20;99.90;;;;;;4129434;28;20050;-83
2022/06/03 05:34:09;;;;;;;8.07;4.85;;;11.30;99.90;;;;;;4149175;28;20046;-84
2022/06/03 05:36:31;;;;;;;7.97;4.28;;;11.40;99.90;;;;;;4203706;28;20061;-86
2022/06/03 05:39:10;;;;;;;8.00;4.57;;;11.50;99.90;;;;;;4249562;28;20039;-84
2022/06/03 05:43:58;;;;;;;7.15;4.50;;;11.70;99.90;;;;;;4232401;28;20051;-84
2022/06/03 05:46:15;;;;;;;7.82;4.80;;;11.80;99.90;;;;;;4214981;28;20040;-84
2022/06/03 05:48:28;;;;;;;9.35;4.70;;;11.90;99.90;;;;;;4235476;28;20052;-84
2022/06/03 05:50:37;;;;;;;9.85;4.70;;;12.00;99.90;;;;;;4235668;28;20395;-84
2022/06/03 05:52:53;;;;;;;7.30;4.15;;;12.10;99.90;;;;;;4235161;28;20047;-84
2022/06/03 05:55:24;;;;;;;7.93;4.28;;;12.20;99.90;;;;;;4241534;27;20039;-83
2022/06/03 05:57:45;;;;;;;7.82;4.40;;;12.30;99.90;;;;;;4217925;28;20044;-83
2022/06/03 06:00:20;;;;;;;9.88;3.90;;;12.40;99.90;;;;;;4252760;27;20092;-84
2022/06/03 06:02:27;;;;;;;8.85;5.03;;;12.50;99.90;;;;;;4251958;27;20043;-84
2022/06/03 06:04:46;;;;;;;7.90;4.30;;;12.60;99.90;;;;;;4251870;27;20045;-84
2022/06/03 06:07:00;;;;;;;8.82;3.83;;;12.70;99.90;;;;;;4252081;27;20039;-83
2022/06/03 06:09:19;;;;;;;6.97;4.00;;;12.90;99.90;;;;;;4250900;27;20043;-82
2022/06/03 06:11:32;;;;;;;7.90;3.60;;;13.00;99.90;;;;;;4251040;27;20050;-83
2022/06/03 06:13:45;;;;;;;7.03;4.10;;;13.00;99.90;;;;;;4250831;27;20047;-83
2022/06/03 06:16:03;;;;;;;6.38;3.85;;;13.20;99.90;;;;;;4233720;28;20050;-83
2022/06/03 06:18:32;;;;;;;7.57;3.33;;;13.30;99.90;;;;;;4251625;27;20043;-83
2022/06/03 06:20:57;;;;;;;5.65;3.13;;;13.30;99.90;;;;;;4251256;27;20055;-84
2022/06/03 06:23:24;;;;;;;4.85;2.58;;;13.50;99.90;;;;;;4251569;27;20058;-83
2022/06/03 06:25:34;;;;;;;3.83;2.42;;;13.50;99.90;;;;;;4251756;27;20039;-83
2022/06/03 06:27:38;;;;;;;6.28;2.90;;;13.60;99.90;;;;;;4251917;27;20046;-82
2022/06/03 06:30:03;;;;;;;3.53;2.40;;;13.60;99.90;;;;;;4252113;27;20043;-83
2022/06/03 06:32:38;;;;;;;3.42;2.50;;;13.70;99.90;;;;;;4251742;27;20328;-83
2022/06/03 06:35:00;;;;;;;5.55;2.92;;;13.80;99.90;;;;;;4251707;27;20074;-83
2022/06/03 06:37:07;;;;;;;5.45;3.10;;;13.90;99.90;;;;;;4251056;27;20039;-83
2022/06/03 06:39:35;;;;;;;6.60;2.83;;;14.00;99.90;;;;;;4251057;27;20047;-83
2022/06/03 06:42:04;;;;;;;4.00;2.73;;;14.20;99.90;;;;;;4251511;27;20047;-83
2022/06/03 06:44:34;;;;;;;5.70;2.42;;;14.30;99.90;;;;;;4232989;28;20090;-83
2022/06/03 06:47:06;;;;;;;3.63;1.73;;;14.40;99.90;;;;;;4251048;27;20042;-83
2022/06/03 06:49:35;;;;;;;5.95;1.70;;;14.50;99.90;;;;;;4251119;27;20088;-85
2022/06/03 06:52:23;;;;;;;2.38;1.58;;;14.70;99.90;;;;;;4233780;28;20142;-84
2022/06/03 06:54:48;;;;;;;5.13;1.77;;;14.70;99.90;;;;;;4233660;28;20043;-83
2022/06/03 06:57:14;;;;;;;2.70;1.58;;;14.90;99.90;;;;;;4251440;27;20047;-83
2022/06/03 06:59:29;;;;;;;3.40;1.80;;;14.90;99.90;;;;;;4232484;28;20039;-83
2022/06/03 07:01:33;;;;;;;3.35;1.55;;;15.00;99.80;;;;;;4251440;27;20051;-82
2022/06/03 07:04:04;;;;;;;3.42;1.58;;;15.10;99.50;;;;;;4252123;27;20055;-83
2022/06/03 07:06:41;;;;;;;3.40;1.83;;;15.20;99.20;;;;;;4251737;27;20043;-84
2022/06/03 07:08:51;;;;;;;3.90;1.77;;;15.30;99.00;;;;;;4236905;27;20530;-83
2022/06/03 07:11:00;;;;;;;4.30;1.27;;;15.40;98.80;;;;;;4251605;27;20054;-86
2022/06/03 07:13:16;;;;;;;4.28;1.65;;;15.50;98.10;;;;;;4250269;27;20081;-83
2022/06/03 07:15:34;;;;;;;2.28;1.02;;;15.60;97.80;;;;;;4232130;28;20138;-84
2022/06/03 07:20:33;;;;;;;2.20;1.13;;;15.70;97.10;;;;;;4250133;27;20051;-84
2022/06/03 07:22:55;;;;;;;4.70;1.08;;;15.80;96.90;;;;;;4250712;27;20120;-83
2022/06/03 07:25:26;;;;;;;1.90;1.20;;;15.90;96.70;;;;;;4250659;27;20054;-83
2022/06/03 07:27:44;;;;;;;1.95;1.00;;;16.10;96.30;;;;;;4250942;27;20047;-82
2022/06/03 07:29:58;;;;;;;3.17;1.13;;;16.20;95.40;;;;;;4251221;27;20095;-82
2022/06/03 07:32:10;;;;;;;2.30;1.00;;;16.20;95.50;;;;;;4250694;27;20054;-82
2022/06/03 07:34:14;;;;;;;1.58;0.98;;;16.30;95.10;;;;;;4250321;27;20035;-82
2022/06/03 07:36:35;;;;;;;1.95;0.85;;;16.40;95.00;;;;;;4249852;27;20031;-83
2022/06/03 07:38:54;;;;;;;2.17;0.80;;;16.50;94.80;;;;;;4249216;27;20043;-83
2022/06/03 07:41:32;;;;;;;3.35;1.15;;;16.70;94.40;;;;;;4231995;28;20047;-82
2022/06/03 07:43:54;;;;;;;2.30;1.30;;;16.80;93.30;;;;;;4250242;27;20046;-83
2022/06/03 07:46:06;;;;;;;2.00;1.02;;;16.90;93.00;;;;;;4249699;27;20510;-83
2022/06/03 07:48:13;;;;;;;2.40;0.90;;;17.00;93.00;;;;;;4250337;27;20049;-83
2022/06/03 07:50:19;;;;;;;0.90;0.60;;;17.10;93.10;;;;;;4250260;27;20099;-83
2022/06/03 07:52:52;;;;;;;2.13;0.90;;;17.30;92.40;;;;;;4250237;27;20066;-84
2022/06/03 07:54:57;;;;;;;3.20;0.77;;;17.40;91.70;;;;;;4231187;28;20067;-83
2022/06/03 07:57:08;;;;;;;1.35;0.80;;;17.50;91.60;;;;;;4249769;27;20039;-83
2022/06/03 07:59:20;;;;;;;1.40;0.90;;;17.70;91.30;;;;;;4248963;27;20092;-83
2022/06/03 08:01:26;;;;;;;1.73;0.70;;;;;;;;;;4249670;27;20103;-83
2022/06/03 08:03:34;;;;;;;1.75;1.23;;;;;;;;;;4249050;27;20050;-83
2022/06/03 08:05:35;;;;;;;3.25;1.13;;;;;;;;;;4248905;27;20486;-83
2022/06/03 08:12:29;;;;;;;2.28;0.93;;;18.40;87.70;;;;;;4248460;27;20054;-83
2022/06/03 08:14:30;;;;;;;2.47;0.80;;;18.50;87.40;;;;;;4230771;28;20048;-83
2022/06/03 08:16:38;;;;;;;1.10;0.65;;;18.60;87.00;;;;;;4249079;27;20480;-81
2022/06/03 08:18:42;;;;;;;1.40;1.00;;;18.80;86.00;;;;;;4230653;28;20047;-83
2022/06/03 08:20:51;;;;;;;1.05;0.80;;;19.00;84.90;;;;;;4249323;27;20069;-82
2022/06/03 08:22:53;;;;;;;3.65;1.00;;;19.20;83.90;;;;;;4249510;27;20651;-83
2022/06/03 08:24:57;;;;;;;3.00;1.02;;;19.20;83.50;;;;;;4249194;27;20038;-84
2022/06/03 08:27:04;;;;;;;0.60;0.60;;;19.20;81.10;;;;;;4249756;27;20487;-83
2022/06/03 08:29:35;;;;;;;1.92;0.60;;;19.30;81.00;;;;;;4248951;27;20043;-84
2022/06/03 08:31:36;;;;;;;2.58;0.57;;;19.40;80.10;;;;;;4231168;28;20440;-84
2022/06/03 08:33:54;;;;;;;1.38;0.55;;;19.60;79.80;;;;;;4248809;27;20042;-84
2022/06/03 08:35:55;;;;;;;2.95;0.73;;;19.70;76.80;;;;;;4238522;27;20172;-83
2022/06/03 08:37:55;;;;;;;1.30;0.73;;;19.80;78.30;;;;;;4249562;27;20043;-83
2022/06/03 08:40:02;;;;;;;2.75;0.85;;;19.90;77.80;;;;;;4248944;27;20047;-83
2022/06/03 08:42:30;;;;;;;0.95;0.60;;;20.00;76.60;;;;;;4230961;28;20182;-83
2022/06/03 08:44:56;;;;;;;1.95;0.55;;;20.10;72.00;;;;;;4248512;27;20039;-83
2022/06/03 08:47:19;;;;;;;2.45;0.68;;;20.20;72.60;;;;;;4249459;27;20054;-82
2022/06/03 08:49:27;;;;;;;3.50;0.93;;;20.30;72.00;;;;;;4249120;27;20515;-83
2022/06/03 08:52:00;;;;;;;1.00;0.73;;;20.40;72.00;;;;;;4230154;28;20054;-83
2022/06/03 08:54:27;;;;;;;8.20;1.77;;;20.60;70.60;;;;;;4220043;28;20054;-83
2022/06/03 08:56:36;;;;;;;2.15;0.65;;;20.80;70.50;;;;;;4232141;28;20035;-83
2022/06/03 08:58:56;;;;;;;1.85;0.70;;;21.00;69.40;;;;;;4233350;28;20050;-82
2022/06/03 09:01:34;;;;;;;3.22;1.00;;;21.10;67.80;;;;;;4232097;28;20130;-83
2022/06/03 09:04:01;;;;;;;2.88;1.05;;;21.20;67.30;;;;;;4232131;28;20036;-83
2022/06/03 09:06:06;;;;;;;1.13;0.90;;;21.40;67.90;;;;;;4220522;28;20054;-83
2022/06/03 09:08:13;;;;;;;2.38;0.82;;;21.70;67.60;;;;;;4231621;28;20116;-83
2022/06/03 09:10:31;;;;;;;1.25;0.63;;;21.90;67.50;;;;;;4232231;28;20058;-83
2022/06/03 09:12:32;;;;;;;2.40;0.82;;;22.00;66.50;;;;;;4230496;28;20405;-83
2022/06/03 09:14:33;;;;;;;3.78;1.10;;;22.20;67.10;;;;;;4213808;28;20178;-82
2022/06/03 09:16:37;;;;;;;4.65;1.25;;;22.30;66.50;;;;;;4231495;28;20040;-84
2022/06/03 09:18:47;;;;;;;3.17;1.00;;;22.30;64.60;;;;;;4247361;27;20035;-83
2022/06/03 09:21:05;;;;;;;2.75;1.25;;;22.30;63.70;;;;;;4248227;27;20047;-83
2022/06/03 09:23:16;;;;;;;3.28;0.90;;;22.40;64.40;;;;;;4248965;27;20046;-83
2022/06/03 09:25:19;;;;;;;1.63;0.90;;;22.50;62.30;;;;;;4231255;28;20090;-83
2022/06/03 09:27:21;;;;;;;3.03;0.90;;;22.60;62.90;;;;;;4249513;27;20079;-83
2022/06/03 09:29:23;;;;;;;2.83;1.13;;;22.70;62.60;;;;;;4248887;27;20047;-83
2022/06/03 09:31:25;;;;;;;1.40;1.00;;;22.80;62.30;;;;;;4249294;27;20154;-82
2022/06/03 09:33:27;;;;;;;2.03;1.10;;;;;;;;;;4249225;27;20478;-83
2022/06/03 09:35:28;;;;;;;1.33;0.70;;;;;;;;;;4230500;28;20088;-83
2022/06/03 09:37:36;;;;;;;2.28;0.70;;;22.80;61.70;;;;;;4249092;28;20042;-83
2022/06/03 09:39:37;;;;;;;2.70;0.90;;;;;;;;;;4248903;28;20050;-84
2022/06/03 09:41:40;;;;;;;1.52;0.73;;;;;;;;;;4248605;28;20043;-84
2022/06/03 09:43:44;;;;;;;1.83;0.82;;;;;;;;;;4248119;28;20054;-84
2022/06/03 09:45:46;;;;;;;1.65;0.77;;;;;;;;;;4248928;28;20051;-84
2022/06/03 09:47:51;;;;;;;2.33;1.70;;;;;;;;;;4231088;28;20048;-84
2022/06/03 09:49:52;;;;;;;3.83;0.88;;;;;;;;;;4248334;28;20118;-84
2022/06/03 09:52:00;;;;;;;0.90;0.80;;;;;;;;;;4247881;28;20043;-84
2022/06/03 09:54:01;;;;;;;3.78;0.93;;;;;;;;;;4248433;28;20051;-84
2022/06/03 09:56:03;;;;;;;1.35;1.10;;;;;;;;;;4232027;28;20043;-84
2022/06/03 09:58:06;;;;;;;1.75;1.00;;;;;;;;;;4230960;28;20082;-84
2022/06/03 10:00:13;;;;;;;1.80;0.95;;;;;;;;;;4231088;28;20487;-83
2022/06/03 10:02:14;;;;;;;4.43;0.90;;;;;;;;;;4231151;28;20089;-84
2022/06/03 10:04:15;;;;;;;3.45;0.98;;;;;;;;;;4231290;28;20058;-84
2022/06/03 10:06:43;;;;;;;3.88;1.00;;;;;;;;;;4212683;28;20101;-84
2022/06/03 10:13:17;;;;;;;1.65;0.90;;;;;;;;;;4231212;28;20058;-84
2022/06/03 10:15:40;;;;;;;1.52;0.90;;;;;;;;;;4231180;28;20083;-84
2022/06/03 10:17:41;;;;;;;9.75;2.05;;;;;;;;;;4212873;28;20055;-84
2022/06/03 10:19:43;;;;;;;1.52;0.80;;;;;;;;;;4212970;28;20051;-85
2022/06/03 10:21:51;;;;;;;2.45;0.90;;;;;;;;;;4212515;28;20094;-84
2022/06/03 10:23:52;;;;;;;2.05;1.30;;;;;;;;;;4214187;28;20044;-84
2022/06/03 10:25:58;;;;;;;1.40;0.93;;;;;;;;;;4213712;28;20060;-84
2022/06/03 10:28:03;;;;;;;2.13;0.98;;;;;;;;;;4214615;28;20403;-83
2022/06/03 10:30:05;;;;;;;2.88;0.68;;;;;;;;;;4214463;28;20044;-83
2022/06/03 10:32:07;;;;;;;2.10;1.15;;;;;;;;;;4213781;28;20080;-84
2022/06/03 10:34:14;;;;;;;1.77;1.00;;;;;;;;;;4217140;28;20055;-84
2022/06/03 10:36:15;;;;;;;2.53;0.95;;;;;;;;;;4217566;28;20515;-84
2022/06/03 10:38:18;;;;;;;2.92;1.08;;;;;;;;;;4217335;28;20051;-84
2022/06/03 10:40:21;;;;;;;3.03;1.30;;;;;;;;;;4217138;28;20079;-84
2022/06/03 10:42:22;;;;;;;1.30;1.00;;;;;;;;;;4215990;28;20048;-84
2022/06/03 10:44:25;;;;;;;1.67;0.90;;;;;;;;;;4217865;28;20497;-84
2022/06/03 10:46:26;;;;;;;4.30;1.20;;;;;;;;;;4217298;28;20052;-84
2022/06/03 10:48:29;;;;;;;1.65;0.90;;;;;;;;;;4217326;28;20043;-83
2022/06/03 10:50:33;;;;;;;1.55;1.45;;;;;;;;;;4215690;28;20438;-83
2022/06/03 11:02:03;;;;;;;1.63;1.00;;;;;;;;;;4234204;28;20059;-84
2022/06/03 11:04:04;;;;;;;1.52;0.82;;;;;;;;;;4233840;28;20407;-84
2022/06/03 11:06:07;;;;;;;1.45;1.13;;;;;;;;;;4232203;28;20047;-84
2022/06/03 11:08:10;;;;;;;0.82;0.82;;;;;;;;;;4231978;28;20051;-84
2022/06/03 11:10:15;;;;;;;1.85;1.20;;;;;;;;;;4232160;28;20049;-83
2022/06/03 11:12:23;;;;;;;1.33;0.93;;;;;;;;;;4233357;28;20544;-83
2022/06/03 11:14:32;;;;;;;2.60;1.13;;;;;;;;;;4233318;28;20148;-83
2022/06/03 11:16:34;;;;;;;1.52;1.10;;;;;;;;;;4233377;28;20047;-83
2022/06/03 11:18:35;;;;;;;2.78;0.93;;;;;;;;;;4233245;28;20039;-83
2022/06/03 11:20:39;;;;;;;3.15;1.33;;;;;;;;;;4232846;28;20040;-83
2022/06/03 11:22:43;;;;;;;2.10;1.05;;;;;;;;;;4247466;27;20423;-83
2022/06/03 11:24:50;;;;;;;2.58;1.00;;;;;;;;;;4232319;28;20056;-84
2022/06/03 11:26:51;;;;;;;3.15;1.40;;;;;;;;;;4232260;28;20052;-83
2022/06/03 11:28:59;;;;;;;1.00;0.90;;;;;;;;;;4250075;27;20551;-84
2022/06/03 11:31:18;;;;;;;3.15;1.00;;;;;;;;;;4250155;27;20908;-84
2022/06/03 11:33:19;;;;;;;2.28;1.00;;;;;;;;;;4250168;27;20399;-84
2022/06/03 11:35:24;;;;;;;2.40;1.00;;;;;;;;;;4250064;27;20050;-83
2022/06/03 11:37:39;;;;;;;1.77;1.13;;;;;;;;;;4250236;27;20043;-83
2022/06/03 11:39:44;;;;;;;3.70;1.00;;;;;;;;;;4250453;27;20039;-84
2022/06/03 11:41:48;;;;;;;5.45;1.45;;;;;;;;;;4250684;27;20044;-84
2022/06/03 11:43:58;;;;;;;1.65;1.00;;;;;;;;;;4250378;27;20039;-84
2022/06/03 11:46:02;;;;;;;1.25;0.90;;;;;;;;;;4250288;27;20130;-83
2022/06/03 11:48:25;;;;;;;1.85;1.10;;;;;;;;;;4250117;27;20039;-84
2022/06/03 11:50:28;;;;;;;1.50;1.33;;;;;;;;;;4249698;27;20084;-82
2022/06/03 11:52:29;;;;;;;2.97;1.20;;;;;;;;;;4249961;27;20055;-83
2022/06/03 11:54:31;;;;;;;3.63;0.95;;;;;;;;;;4246049;27;20039;-83
2022/06/03 11:56:35;;;;;;;1.00;0.90;;;;;;;;;;4232374;28;20096;-83
2022/06/03 11:58:57;;;;;;;1.98;1.00;;;;;;;;;;4233804;28;20044;-82
2022/06/03 12:01:02;;;;;;;2.97;1.38;;;;;;;;;;4219451;28;20048;-83
2022/06/03 12:03:03;;;;;;;0.95;0.80;;;;;;;;;;4233379;28;20111;-83
2022/06/03 12:05:15;;;;;;;2.70;1.13;;;;;;;;;;4232762;28;20039;-86
2022/06/03 12:07:19;;;;;;;3.35;0.95;;;;;;;;;;4233029;28;20507;-84
2022/06/03 12:09:20;;;;;;;5.60;1.33;;;;;;;;;;4244415;27;20510;-83
2022/06/03 12:14:10;;;;;;;1.75;1.00;;;;;;;;;;4249142;27;20093;-84
2022/06/03 12:16:17;;;;;;;2.75;1.10;;;;;;;;;;4249402;27;20046;-83
2022/06/03 12:18:34;;;;;;;2.80;0.80;;;;;;;;;;4249148;27;20529;-83
2022/06/03 12:20:50;;;;;;;3.33;0.80;;;;;;;;;;4231005;28;20459;-83
2022/06/03 12:22:54;;;;;;;2.55;0.77;;;;;;;;;;4249267;27;20055;-83
2022/06/03 12:24:56;;;;;;;2.55;0.90;;;;;;;;;;4249533;27;20083;-83
2022/06/03 12:27:01;;;;;;;2.33;0.88;;;;;;;;;;4249067;27;20094;-83
2022/06/03 12:29:24;;;;;;;1.33;0.70;;;;;;;;;;4249421;27;20046;-83
2022/06/03 12:31:31;;;;;;;4.60;0.80;;;;;;;;;;4249118;27;20027;-83
2022/06/03 12:33:35;;;;;;;1.92;0.73;;;;;;;;;;4249584;27;20483;-83
2022/06/03 12:35:43;;;;;;;1.60;0.57;;;;;;;;;;4249106;27;20043;-83
2022/06/03 12:37:44;;;;;;;2.58;0.63;;;;;;;;;;4248903;27;20054;-84
2022/06/03 12:39:50;;;;;;;1.33;0.50;;;;;;;;;;4231071;28;20073;-83
2022/06/03 12:41:52;;;;;;;1.30;0.60;;;;;;;;;;4248992;27;20483;-83
2022/06/03 12:43:54;;;;;;;3.13;0.80;;;;;;;;;;4249086;27;20046;-83
2022/06/03 12:46:01;;;;;;;1.92;0.80;;;;;;;;;;4248603;27;20050;-83